Time;durP1;ratioP1;P1;durP2;ratioP2;P2;SDS_P1;SDS_P2;PMS_P1;PMS_P2;Temp;Humidity;BMP_temperature;BMP_pressure;BME280_temperature;BME280_humidity;BME280_pressure;Samples;Min_cycle;Max_cycle;Signal;HPM_P1;HPM_P2
2023/04/19 00:00:51;;;;;;;12.35;7.07;;;;;;;;;;5056675;28;20148;-76
2023/04/19 00:03:18;;;;;;;14.38;7.45;;;;;;;;;;5062204;28;21113;-76
2023/04/19 00:05:44;;;;;;;11.93;7.00;;;;;;;;;;5058694;28;20052;-75
2023/04/19 00:08:11;;;;;;;12.82;7.25;;;;;;;;;;5062259;28;20050;-76
2023/04/19 00:10:38;;;;;;;13.90;6.90;;;;;;;;;;5058293;28;20155;-76
2023/04/19 00:13:05;;;;;;;13.63;7.88;;;;;;;;;;5056202;28;20054;-75
2023/04/19 00:15:33;;;;;;;12.60;7.53;;;;;;;;;;5061483;28;20103;-75
2023/04/19 00:18:00;;;;;;;15.98;8.25;;;;;;;;;;5062255;28;20061;-76
2023/04/19 00:20:28;;;;;;;15.55;7.43;;;;;;;;;;5061022;28;20107;-76
2023/04/19 00:22:57;;;;;;;13.32;7.47;;;;;;;;;;5059124;28;20743;-76
2023/04/19 00:25:23;;;;;;;18.45;8.07;;;;;;;;;;5062398;28;20993;-76
2023/04/19 00:27:50;;;;;;;14.25;7.50;;;;;;;;;;5065502;28;20132;-76
2023/04/19 00:30:16;;;;;;;14.80;7.90;;;;;;;;;;5066117;28;20068;-76
2023/04/19 00:32:42;;;;;;;18.30;8.10;;;;;;;;;;5063589;28;20076;-76
2023/04/19 00:35:09;;;;;;;14.02;7.60;;;;;;;;;;5055856;28;20064;-76
2023/04/19 00:37:35;;;;;;;13.75;7.22;;;;;;;;;;5062389;28;20053;-76
2023/04/19 00:40:03;;;;;;;12.80;7.47;;;;;;;;;;5049134;28;20549;-76
2023/04/19 00:42:29;;;;;;;13.35;8.20;;;;;;;;;;5065778;28;20052;-76
2023/04/19 00:44:55;;;;;;;13.52;7.60;;;;;;;;;;5050052;28;20806;-76
2023/04/19 00:47:22;;;;;;;12.32;7.25;;;;;;;;;;5046286;28;20056;-76
2023/04/19 00:50:05;;;;;;;13.73;7.78;;;;;;;;;;5058955;28;20717;-75
2023/04/19 00:52:32;;;;;;;13.90;7.80;;;;;;;;;;5054819;28;20054;-76
2023/04/19 00:54:58;;;;;;;15.02;8.05;;;;;;;;;;5060343;28;20612;-75
2023/04/19 00:57:25;;;;;;;13.20;7.55;;;;;;;;;;5044792;28;20527;-75
2023/04/19 00:59:53;;;;;;;14.32;7.72;;;;;;;;;;5026769;28;20056;-75
2023/04/19 01:02:20;;;;;;;12.82;7.72;;;;;;;;;;5038156;28;20054;-75
2023/04/19 01:04:47;;;;;;;16.58;8.25;;;;;;;;;;5058603;28;20087;-75
2023/04/19 01:07:13;;;;;;;14.15;7.13;;;;;;;;;;5059894;28;20057;-75
2023/04/19 01:09:40;;;;;;;12.50;7.35;;;;;;;;;;5059049;28;20168;-75
2023/04/19 01:12:07;;;;;;;13.02;7.90;;;;;;;;;;5059308;28;20133;-75
2023/04/19 01:14:33;;;;;;;13.80;7.97;;;;;;;;;;5041887;28;20059;-75
2023/04/19 01:16:59;;;;;;;14.32;7.55;;;;;;;;;;5043567;28;20518;-75
2023/04/19 01:19:26;;;;;;;14.60;8.27;;;;;;;;;;5059900;28;20051;-75
2023/04/19 01:21:52;;;;;;;14.23;7.78;;;;;;;;;;5050458;28;20065;-75
2023/04/19 01:24:18;;;;;;;14.20;7.50;;;;;;;;;;5036148;28;20054;-75
2023/04/19 01:26:44;;;;;;;13.82;8.07;;;;;;;;;;5036317;28;20107;-75
2023/04/19 01:29:11;;;;;;;12.85;7.88;;;;;;;;;;5043967;28;20052;-75
2023/04/19 01:31:37;;;;;;;15.23;8.43;;;;;;;;;;5044494;28;20058;-75
2023/04/19 01:34:04;;;;;;;16.38;8.20;;;;;;;;;;5056461;28;20080;-75
2023/04/19 01:36:31;;;;;;;16.00;7.95;;;;;;;;;;5040947;28;20084;-75
2023/04/19 01:38:57;;;;;;;16.10;8.15;;;;;;;;;;5055580;28;20136;-75
2023/04/19 01:41:25;;;;;;;15.02;8.40;;;;;;;;;;5045206;28;20061;-75
2023/04/19 01:43:52;;;;;;;15.55;8.30;;;;;;;;;;5018611;28;20516;-75
2023/04/19 01:46:18;;;;;;;13.68;7.90;;;;;;;;;;5018389;28;20158;-75
2023/04/19 01:48:45;;;;;;;13.93;7.75;;;;;;;;;;5046591;28;20049;-75
2023/04/19 01:51:11;;;;;;;13.48;8.55;;;;;;;;;;5041385;28;20139;-75
2023/04/19 01:53:37;;;;;;;15.52;7.88;;;;;;;;;;5019345;28;20052;-75
2023/04/19 01:56:04;;;;;;;13.85;8.30;;;;;;;;;;5032283;28;20085;-75
2023/04/19 01:58:30;;;;;;;16.67;9.05;;;;;;;;;;5060056;28;20053;-77
2023/04/19 02:00:57;;;;;;;14.77;8.18;;;;;;;;;;5048669;28;20138;-77
2023/04/19 02:03:23;;;;;;;17.13;9.30;;;;;;;;;;5024214;28;20144;-77
2023/04/19 02:05:50;;;;;;;15.48;7.93;;;;;;;;;;5035663;28;20054;-77
2023/04/19 02:08:16;;;;;;;16.88;9.15;;;;;;;;;;5048705;28;20365;-76
2023/04/19 02:10:43;;;;;;;15.38;8.80;;;;;;;;;;5049061;28;20062;-77
2023/04/19 02:13:09;;;;;;;17.65;9.32;;;;;;;;;;5032275;28;20064;-77
2023/04/19 02:15:35;;;;;;;15.20;8.88;;;;;;;;;;5049484;28;20153;-77
2023/04/19 02:18:05;;;;;;;15.23;8.20;;;;;;;;;;5037020;28;20077;-77
2023/04/19 02:20:32;;;;;;;13.05;7.78;;;;;;;;;;5037152;28;20440;-77
2023/04/19 02:22:58;;;;;;;14.95;8.82;;;;;;;;;;5023887;28;20058;-77
2023/04/19 02:25:25;;;;;;;15.15;9.05;;;;;;;;;;5028329;28;20046;-77
2023/04/19 02:27:51;;;;;;;17.05;8.57;;;;;;;;;;5023752;28;20060;-77
2023/04/19 02:30:17;;;;;;;15.40;8.82;;;;;;;;;;5031371;28;20881;-75
2023/04/19 02:32:46;;;;;;;15.93;8.80;;;;;;;;;;5043124;28;20049;-75
2023/04/19 02:35:12;;;;;;;17.25;9.93;;;;;;;;;;5046113;28;20177;-74
2023/04/19 02:37:39;;;;;;;16.15;9.73;;;;;;;;;;5039508;28;20065;-74
2023/04/19 02:40:06;;;;;;;15.93;9.40;;;;;;;;;;5031313;28;20141;-74
2023/04/19 02:42:33;;;;;;;16.60;9.02;;;;;;;;;;5014047;28;21401;-74
2023/04/19 02:44:59;;;;;;;17.05;9.38;;;;;;;;;;5040563;28;20466;-74
2023/04/19 02:47:25;;;;;;;15.20;9.07;;;;;;;;;;5043109;28;20109;-74
2023/04/19 02:49:52;;;;;;;17.98;9.05;;;;;;;;;;5025172;28;20136;-74
2023/04/19 02:52:18;;;;;;;16.98;8.90;;;;;;;;;;5029316;28;20754;-74
2023/04/19 02:54:44;;;;;;;15.30;8.93;;;;;;;;;;5025266;28;20058;-74
2023/04/19 02:57:11;;;;;;;17.10;9.48;;;;;;;;;;5013161;28;20944;-74
2023/04/19 02:59:37;;;;;;;17.17;9.18;;;;;;;;;;5023441;28;20061;-74
2023/04/19 03:02:03;;;;;;;15.85;8.20;;;;;;;;;;5021606;28;20050;-74
2023/04/19 03:04:31;;;;;;;16.45;9.23;;;;;;;;;;5038315;28;20053;-74
2023/04/19 03:06:57;;;;;;;15.02;8.63;;;;;;;;;;5027727;28;20088;-73
2023/04/19 03:09:24;;;;;;;15.82;8.73;;;;;;;;;;5021530;28;20177;-74
2023/04/19 03:11:50;;;;;;;15.43;8.98;;;;;;;;;;5023518;28;20053;-74
2023/04/19 03:14:16;;;;;;;17.48;8.93;;;;;;;;;;5021421;28;20061;-74
2023/04/19 03:16:43;;;;;;;15.75;9.25;;;;;;;;;;5026734;28;20107;-74
2023/04/19 03:19:09;;;;;;;15.50;8.90;;;;;;;;;;5014427;28;20051;-74
2023/04/19 03:21:35;;;;;;;15.35;8.93;;;;;;;;;;5028415;28;20504;-74
2023/04/19 03:24:02;;;;;;;14.73;8.00;;;;;;;;;;5043938;28;20149;-74
2023/04/19 03:26:28;;;;;;;13.95;7.95;;;;;;;;;;5025898;28;20117;-74
2023/04/19 03:28:55;;;;;;;15.02;8.27;;;;;;;;;;5010057;28;20520;-74
2023/04/19 03:31:21;;;;;;;15.90;8.40;;;;;;;;;;5004797;28;20053;-74
2023/04/19 03:33:47;;;;;;;15.60;8.32;;;;;;;;;;5007026;28;20082;-75
2023/04/19 03:36:14;;;;;;;14.77;8.90;;;;;;;;;;5024993;28;20056;-74
2023/04/19 03:38:40;;;;;;;15.02;8.75;;;;;;;;;;5033387;28;20134;-75
2023/04/19 03:41:16;;;;;;;15.27;8.43;;;;;;;;;;5039743;28;20054;-75
2023/04/19 03:43:43;;;;;;;16.55;9.55;;;;;;;;;;5025323;28;20069;-74
2023/04/19 03:46:09;;;;;;;13.80;7.53;;;;;;;;;;5022958;28;20064;-74
2023/04/19 03:48:35;;;;;;;17.45;8.15;;;;;;;;;;5016244;28;20517;-74
2023/04/19 03:51:02;;;;;;;16.33;8.00;;;;;;;;;;5025285;28;20137;-74
2023/04/19 03:53:28;;;;;;;16.30;8.02;;;;;;;;;;5025236;28;20145;-74
2023/04/19 03:55:55;;;;;;;14.15;7.90;;;;;;;;;;5034759;28;20057;-74
2023/04/19 03:58:21;;;;;;;12.88;7.25;;;;;;;;;;5020489;28;20513;-74
2023/04/19 04:00:48;;;;;;;13.63;7.63;;;;;;;;;;5016542;28;20088;-74
2023/04/19 04:03:14;;;;;;;13.07;7.32;;;;;;;;;;5013250;28;20521;-74
2023/04/19 04:05:41;;;;;;;13.48;7.38;;;;;;;;;;5027750;28;20128;-74
2023/04/19 04:08:07;;;;;;;16.77;7.90;;;;;;;;;;5015084;28;21237;-74
2023/04/19 04:10:34;;;;;;;14.02;7.78;;;;;;;;;;5029964;28;20087;-74
2023/04/19 04:13:00;;;;;;;16.10;7.53;;;;;;;;;;5032910;28;20140;-74
2023/04/19 04:15:27;;;;;;;15.52;7.32;;;;;;;;;;5044782;28;20483;-75
2023/04/19 04:17:53;;;;;;;14.20;7.70;;;;;;;;;;5033303;28;20141;-76
2023/04/19 04:20:20;;;;;;;12.23;6.85;;;;;;;;;;5025432;28;20058;-75
2023/04/19 04:22:46;;;;;;;14.02;7.00;;;;;;;;;;5033017;28;20088;-75
2023/04/19 04:25:15;;;;;;;14.15;6.78;;;;;;;;;;5044050;28;20042;-76
2023/04/19 04:27:42;;;;;;;12.02;6.68;;;;;;;;;;5044569;28;20058;-75
2023/04/19 04:30:10;;;;;;;12.82;7.25;;;;;;;;;;5043159;28;20060;-76
2023/04/19 04:32:37;;;;;;;14.05;7.10;;;;;;;;;;5024653;28;20116;-75
2023/04/19 04:35:03;;;;;;;13.52;7.43;;;;;;;;;;5028891;28;20184;-75
2023/04/19 04:37:34;;;;;;;14.25;7.05;;;;;;;;;;5010856;28;20586;-75
2023/04/19 04:40:00;;;;;;;14.60;8.15;;;;;;;;;;5032720;28;20145;-75
2023/04/19 04:42:30;;;;;;;12.43;7.05;;;;;;;;;;5044347;28;20488;-75
2023/04/19 04:44:57;;;;;;;14.13;7.28;;;;;;;;;;5028083;28;20073;-75
2023/04/19 04:47:23;;;;;;;12.57;7.57;;;;;;;;;;5038694;28;20058;-75
2023/04/19 04:49:51;;;;;;;11.35;6.68;;;;;;;;;;5043623;28;20081;-75
2023/04/19 04:52:17;;;;;;;16.17;7.78;;;;;;;;;;5042586;28;20053;-75
2023/04/19 04:54:44;;;;;;;13.90;7.05;;;;;;;;;;5036205;28;20059;-75
2023/04/19 04:57:10;;;;;;;12.38;7.10;;;;;;;;;;5010621;28;20057;-76
2023/04/19 04:59:36;;;;;;;11.60;6.50;;;;;;;;;;5028042;28;20061;-75
2023/04/19 05:02:03;;;;;;;12.32;7.15;;;;;;;;;;5022721;28;20753;-75
2023/04/19 05:04:29;;;;;;;13.02;7.63;;;;;;;;;;5039010;28;20551;-75
2023/04/19 05:06:56;;;;;;;14.57;7.32;;;;;;;;;;5034286;28;20605;-76
2023/04/19 05:09:22;;;;;;;14.93;6.95;;;;;;;;;;5036972;28;20564;-75
2023/04/19 05:11:48;;;;;;;12.85;7.60;;;;;;;;;;5041415;28;20061;-75
2023/04/19 05:14:15;;;;;;;13.25;7.20;;;;;;;;;;5018871;28;20060;-75
2023/04/19 05:16:42;;;;;;;14.65;7.53;;;;;;;;;;5023560;28;20050;-75
2023/04/19 05:19:08;;;;;;;14.88;7.63;;;;;;;;;;5021201;28;20062;-75
2023/04/19 05:21:35;;;;;;;14.15;7.95;;;;;;;;;;5042055;28;20053;-74
2023/04/19 05:24:01;;;;;;;15.05;7.28;;;;;;;;;;5022697;28;20065;-76
2023/04/19 05:26:28;;;;;;;11.80;6.63;;;;;;;;;;5043378;28;20546;-76
2023/04/19 05:28:55;;;;;;;13.93;7.00;;;;;;;;;;5021926;28;20074;-75
2023/04/19 05:31:21;;;;;;;13.95;6.85;;;;;;;;;;5019946;28;20064;-75
2023/04/19 05:33:47;;;;;;;12.35;6.13;;;;;;;;;;5013586;28;20480;-75
2023/04/19 05:36:14;;;;;;;14.65;7.40;;;;;;;;;;5040909;28;20050;-76
2023/04/19 05:38:40;;;;;;;14.02;6.18;;;;;;;;;;5045789;28;20072;-75
2023/04/19 05:41:06;;;;;;;12.60;6.47;;;;;;;;;;5020838;28;20058;-76
2023/04/19 05:43:33;;;;;;;14.73;6.43;;;;;;;;;;5035160;28;20057;-76
2023/04/19 05:45:59;;;;;;;15.07;6.60;;;;;;;;;;5030673;28;20053;-75
2023/04/19 05:48:25;;;;;;;11.90;6.45;;;;;;;;;;5025314;28;20144;-75
2023/04/19 05:50:53;;;;;;;13.43;6.53;;;;;;;;;;5017503;28;20509;-76
2023/04/19 05:53:20;;;;;;;11.95;6.50;;;;;;;;;;5025776;28;20053;-76
2023/04/19 05:55:48;;;;;;;13.48;6.50;;;;;;;;;;5037316;28;20057;-76
2023/04/19 05:58:14;;;;;;;14.52;6.35;;;;;;;;;;5026924;28;20580;-76
2023/04/19 06:00:41;;;;;;;12.93;6.38;;;;;;;;;;5016195;28;20054;-76
2023/04/19 06:03:08;;;;;;;13.23;6.25;;;;;;;;;;5031855;28;20081;-76
2023/04/19 06:05:34;;;;;;;9.57;5.20;;;;;;;;;;5031799;28;21056;-76
2023/04/19 06:08:01;;;;;;;12.20;5.97;;;;;;;;;;5032800;28;20068;-76
2023/04/19 06:10:28;;;;;;;11.40;5.57;;;;;;;;;;5010558;28;20090;-75
2023/04/19 06:13:14;;;;;;;10.90;5.45;;;;;;;;;;5009555;28;20061;-75
2023/04/19 06:15:41;;;;;;;12.63;5.55;;;;;;;;;;5013421;28;20137;-75
2023/04/19 06:18:10;;;;;;;14.07;6.20;;;;;;;;;;5014262;28;20149;-76
2023/04/19 06:20:44;;;;;;;10.13;5.25;;;;;;;;;;5013490;28;20529;-76
2023/04/19 06:23:11;;;;;;;12.55;5.32;;;;;;;;;;5020114;28;20553;-75
2023/04/19 06:25:38;;;;;;;9.88;5.55;;;;;;;;;;5022585;28;20061;-76
2023/04/19 06:28:04;;;;;;;10.25;5.80;;;;;;;;;;5029361;28;20072;-75
2023/04/19 06:30:30;;;;;;;13.13;5.50;;;;;;;;;;5045963;28;20153;-74
2023/04/19 06:32:57;;;;;;;12.50;5.38;;;;;;;;;;5032358;28;20081;-75
2023/04/19 06:35:24;;;;;;;9.02;4.75;;;;;;;;;;5024271;28;20074;-75
2023/04/19 06:37:50;;;;;;;8.00;4.63;;;;;;;;;;5010917;28;20082;-76
2023/04/19 06:40:17;;;;;;;10.32;5.15;;;;;;;;;;5005788;28;20050;-75
2023/04/19 06:42:43;;;;;;;9.70;4.90;;;;;;;;;;5023774;28;20060;-76
2023/04/19 06:45:10;;;;;;;9.48;4.65;;;;;;;;;;5029975;28;20053;-76
2023/04/19 06:47:37;;;;;;;9.77;4.65;;;;;;;;;;5027065;28;20053;-76
2023/04/19 06:50:03;;;;;;;10.80;4.80;;;;;;;;;;5024893;28;20050;-75
2023/04/19 06:52:30;;;;;;;12.13;4.75;;;;;;;;;;5025461;28;20437;-76
2023/04/19 06:54:56;;;;;;;9.60;4.90;;;;;;;;;;5025128;28;20058;-75
2023/04/19 06:57:22;;;;;;;9.40;4.68;;;;;;;;;;5025950;28;20046;-75
2023/04/19 06:59:49;;;;;;;8.20;4.57;;;;;;;;;;5017938;28;20049;-76
2023/04/19 07:02:15;;;;;;;11.90;4.57;;;;;;;;;;5007974;28;20054;-75
2023/04/19 07:04:41;;;;;;;11.18;4.85;;;;;;;;;;5015497;28;20152;-75
2023/04/19 07:07:09;;;;;;;12.27;4.70;;;;;;;;;;5011249;28;20069;-74
2023/04/19 07:09:35;;;;;;;7.72;4.30;;;;;;;;;;5011935;28;20053;-75
2023/04/19 07:12:01;;;;;;;7.82;3.90;;;;;;;;;;5016405;28;20093;-75
2023/04/19 07:14:28;;;;;;;8.32;4.32;;;;;;;;;;5022731;28;20534;-76
2023/04/19 07:16:54;;;;;;;7.00;3.70;;;;;;;;;;5022533;28;20054;-76
2023/04/19 07:19:21;;;;;;;9.63;4.50;;;;;;;;;;5031300;28;20054;-76
2023/04/19 07:21:48;;;;;;;8.27;3.60;;;;;;;;;;5028885;28;20132;-76
2023/04/19 07:24:15;;;;;;;8.32;3.72;;;;;;;;;;5023227;28;20054;-76
2023/04/19 07:26:42;;;;;;;7.53;3.50;;;;;;;;;;5023917;28;20058;-76
2023/04/19 07:29:09;;;;;;;11.73;3.83;;;;;;;;;;5012256;28;20081;-76
2023/04/19 07:31:35;;;;;;;7.93;3.33;;;;;;;;;;5020340;28;20104;-76
2023/04/19 07:34:02;;;;;;;8.05;3.60;;;;;;;;;;5012636;28;20456;-76
2023/04/19 07:36:28;;;;;;;6.28;3.22;;;;;;;;;;5031580;28;20053;-76
2023/04/19 07:38:54;;;;;;;7.05;3.47;;;;;;;;;;5019085;28;20739;-77
2023/04/19 07:41:21;;;;;;;9.30;3.20;;;;;;;;;;5025129;28;20061;-75
2023/04/19 07:43:47;;;;;;;9.27;3.80;;;;;;;;;;5024209;28;20057;-75
2023/04/19 07:46:17;;;;;;;7.40;3.10;;;;;;;;;;5012226;28;20054;-75
2023/04/19 07:48:43;;;;;;;7.25;3.47;;;;;;;;;;5005374;28;20156;-75
2023/04/19 07:51:11;;;;;;;10.10;3.38;;;;;;;;;;5024832;28;20132;-76
2023/04/19 07:53:38;;;;;;;8.73;3.42;;;;;;;;;;5030917;28;20520;-76
2023/04/19 07:56:08;;;;;;;7.45;3.33;;;;;;;;;;5024118;28;20057;-76
2023/04/19 07:58:38;;;;;;;7.38;2.83;;;;;;;;;;5017243;28;20081;-76
2023/04/19 08:01:04;;;;;;;8.15;2.88;;;;;;;;;;5011201;28;20161;-76
2023/04/19 08:03:32;;;;;;;7.70;3.28;;;;;;;;;;5009355;28;21014;-77
2023/04/19 08:06:08;;;;;;;8.57;3.15;;;;;;;;;;5012578;28;20057;-77
2023/04/19 08:08:35;;;;;;;6.47;2.95;;;;;;;;;;5020293;28;20061;-76
2023/04/19 08:11:03;;;;;;;9.43;3.50;;;;;;;;;;5023849;28;20069;-76
2023/04/19 08:13:29;;;;;;;12.82;3.65;;;;;;;;;;5024094;28;20464;-77
2023/04/19 08:15:56;;;;;;;5.75;3.00;;;;;;;;;;5018610;28;20073;-78
2023/04/19 08:18:25;;;;;;;7.18;3.15;;;;;;;;;;5018484;28;20081;-76
2023/04/19 08:20:52;;;;;;;7.20;2.97;;;;;;;;;;5008239;28;20065;-77
2023/04/19 08:23:19;;;;;;;6.50;3.08;;;;;;;;;;5011901;28;20046;-77
2023/04/19 08:25:52;;;;;;;5.75;2.78;;;;;;;;;;5020793;28;20118;-77
2023/04/19 08:28:19;;;;;;;5.75;2.80;;;;;;;;;;5018242;28;20066;-77
2023/04/19 08:30:45;;;;;;;9.18;3.28;;;;;;;;;;5014584;28;20796;-77
2023/04/19 08:33:12;;;;;;;5.57;2.70;;;;;;;;;;5005137;28;20064;-76
2023/04/19 08:35:40;;;;;;;8.85;3.10;;;;;;;;;;5012504;28;20057;-75
2023/04/19 08:38:07;;;;;;;14.30;2.83;;;;;;;;;;5008074;28;20089;-75
2023/04/19 08:40:34;;;;;;;9.50;3.20;;;;;;;;;;5023054;28;20061;-76
2023/04/19 08:43:04;;;;;;;7.25;2.60;;;;;;;;;;5018262;28;20061;-76
2023/04/19 08:45:30;;;;;;;5.57;2.83;;;;;;;;;;5015959;28;20057;-77
2023/04/19 08:47:57;;;;;;;7.22;2.70;;;;;;;;;;5018138;28;20049;-77
2023/04/19 08:50:27;;;;;;;8.13;2.40;;;;;;;;;;5015172;28;20054;-77
2023/04/19 08:53:05;;;;;;;6.57;2.08;;;;;;;;;;5013599;28;20257;-76
2023/04/19 08:55:50;;;;;;;5.78;1.98;;;;;;;;;;5009963;28;20137;-77
2023/04/19 08:58:36;;;;;;;9.40;2.22;;;;;;;;;;5009580;28;20117;-76
2023/04/19 09:01:07;;;;;;;6.28;2.35;;;;;;;;;;5005606;28;20551;-77
2023/04/19 09:03:41;;;;;;;5.53;2.20;;;;;;;;;;5009015;28;20058;-77
2023/04/19 09:06:26;;;;;;;7.20;2.30;;;;;;;;;;5012173;28;20098;-77
2023/04/19 09:08:57;;;;;;;6.05;1.58;;;;;;;;;;5004970;28;20142;-77
2023/04/19 09:11:36;;;;;;;6.28;1.55;;;;;;;;;;5015533;28;20053;-77
2023/04/19 09:14:09;;;;;;;4.20;1.70;;;;;;;;;;5010864;28;20065;-77
2023/04/19 09:16:38;;;;;;;5.22;1.52;;;;;;;;;;5024810;28;20541;-76
2023/04/19 09:19:05;;;;;;;12.43;1.85;;;;;;;;;;5027223;28;20434;-77
2023/04/19 09:21:50;;;;;;;5.38;1.65;;;;;;;;;;5026934;28;20054;-76
2023/04/19 09:24:17;;;;;;;3.50;1.40;;;;;;;;;;5026116;28;20085;-77
2023/04/19 09:26:52;;;;;;;13.00;1.88;;;;;;;;;;5026174;28;20058;-77
2023/04/19 09:29:20;;;;;;;8.38;1.60;;;;;;;;;;5029346;28;20053;-76
2023/04/19 09:31:55;;;;;;;4.50;1.40;;;;;;;;;;5025172;28;20061;-77
2023/04/19 09:34:22;;;;;;;7.28;1.90;;;;;;;;;;5010944;28;20058;-77
2023/04/19 09:36:49;;;;;;;5.30;1.50;;;;;;;;;;5014065;28;20078;-76
2023/04/19 09:39:35;;;;;;;3.15;1.40;;;;;;;;;;5019471;28;20050;-76
2023/04/19 09:42:01;;;;;;;6.13;1.60;;;;;;;;;;5022057;28;20065;-76
2023/04/19 09:44:28;;;;;;;6.80;1.63;;;;;;;;;;5009913;28;20058;-76
2023/04/19 09:46:57;;;;;;;6.28;1.60;;;;;;;;;;5023483;28;20062;-76
2023/04/19 09:49:24;;;;;;;3.70;1.67;;;;;;;;;;5024307;28;20062;-76
2023/04/19 09:52:12;;;;;;;6.00;1.80;;;;;;;;;;5025009;28;20061;-76
2023/04/19 09:54:38;;;;;;;4.90;1.80;;;;;;;;;;5020874;28;20052;-76
2023/04/19 09:57:05;;;;;;;5.93;2.00;;;;;;;;;;5025497;28;20070;-76
2023/04/19 09:59:31;;;;;;;6.15;1.80;;;;;;;;;;5020890;28;20594;-77
2023/04/19 10:01:58;;;;;;;6.47;2.00;;;;;;;;;;5015742;28;20054;-77
2023/04/19 10:04:25;;;;;;;7.65;2.30;;;;;;;;;;5018495;28;20214;-77
2023/04/19 10:07:09;;;;;;;4.35;1.60;;;;;;;;;;5014384;28;20069;-77
2023/04/19 10:09:38;;;;;;;5.50;1.70;;;;;;;;;;5016063;28;20068;-77
2023/04/19 10:12:18;;;;;;;4.55;1.55;;;;;;;;;;5022982;28;20058;-77
2023/04/19 10:15:06;;;;;;;6.07;1.58;;;;;;;;;;5021128;28;20061;-76
2023/04/19 10:17:32;;;;;;;3.83;1.80;;;;;;;;;;5022261;28;20058;-77
2023/04/19 10:20:05;;;;;;;11.15;2.30;;;;;;;;;;5007769;28;20105;-77
2023/04/19 10:22:33;;;;;;;7.38;2.40;;;;;;;;;;5022364;28;20556;-77
2023/04/19 10:25:14;;;;;;;3.78;1.48;;;;;;;;;;5024389;28;20053;-76
2023/04/19 10:27:45;;;;;;;5.40;1.70;;;;;;;;;;5006797;28;20054;-77
2023/04/19 10:30:18;;;;;;;8.43;2.08;;;;;;;;;;5005569;28;20062;-73
2023/04/19 10:32:46;;;;;;;4.28;1.88;;;;;;;;;;5027599;28;20105;-74
2023/04/19 10:35:22;;;;;;;5.32;2.08;;;;;;;;;;5013121;28;20476;-74
2023/04/19 10:38:05;;;;;;;6.97;2.08;;;;;;;;;;5007889;28;20080;-74
2023/04/19 10:40:50;;;;;;;4.65;2.00;;;;;;;;;;5011288;28;20055;-75
2023/04/19 10:43:17;;;;;;;4.78;1.65;;;;;;;;;;5013814;28;20061;-74
2023/04/19 10:45:44;;;;;;;5.57;1.55;;;;;;;;;;5021734;28;20076;-75
2023/04/19 10:48:37;;;;;;;7.75;1.80;;;;;;;;;;5020747;28;20058;-75
2023/04/19 10:51:14;;;;;;;6.38;1.70;;;;;;;;;;5028188;28;20069;-74
2023/04/19 10:53:43;;;;;;;7.15;1.85;;;;;;;;;;5019815;28;20046;-74
2023/04/19 10:56:09;;;;;;;4.10;1.63;;;;;;;;;;5027482;28;20157;-74
2023/04/19 10:58:54;;;;;;;13.23;3.15;;;;;;;;;;5020165;28;20583;-74
2023/04/19 11:01:38;;;;;;;6.03;1.88;;;;;;;;;;5025087;28;21353;-74
2023/04/19 11:04:05;;;;;;;5.20;1.70;;;;;;;;;;5011460;28;20050;-74
2023/04/19 11:06:33;;;;;;;5.82;1.98;;;;;;;;;;5023449;28;20540;-74
2023/04/19 11:09:01;;;;;;;4.90;1.83;;;;;;;;;;5021089;28;20142;-74
2023/04/19 11:11:28;;;;;;;5.63;2.17;;;;;;;;;;5004899;28;20053;-74
2023/04/19 11:13:55;;;;;;;7.15;1.98;;;;;;;;;;5013835;28;20582;-74
2023/04/19 11:16:21;;;;;;;5.00;1.80;;;;;;;;;;5024122;28;20100;-74
2023/04/19 11:19:03;;;;;;;5.13;2.22;;;;;;;;;;5022467;28;20053;-74
2023/04/19 11:21:29;;;;;;;3.85;1.70;;;;;;;;;;5000797;28;20543;-74
2023/04/19 11:24:06;;;;;;;14.55;3.65;;;;;;;;;;5012659;28;20053;-74
2023/04/19 11:26:33;;;;;;;7.28;2.15;;;;;;;;;;5011608;28;20057;-74
2023/04/19 11:29:00;;;;;;;8.48;2.08;;;;;;;;;;5006643;28;20054;-74
2023/04/19 11:31:27;;;;;;;5.97;1.98;;;;;;;;;;5020422;28;20053;-74
2023/04/19 11:33:53;;;;;;;4.63;1.90;;;;;;;;;;5015781;28;20061;-75
2023/04/19 11:36:19;;;;;;;6.15;2.00;;;;;;;;;;5021699;28;20057;-75
2023/04/19 11:38:46;;;;;;;5.93;2.17;;;;;;;;;;5018190;28;20054;-75
2023/04/19 11:41:13;;;;;;;4.13;2.05;;;;;;;;;;5018057;28;20137;-75
2023/04/19 11:43:40;;;;;;;7.20;2.35;;;;;;;;;;5006832;28;20604;-75
2023/04/19 11:46:10;;;;;;;5.80;2.33;;;;;;;;;;5006582;28;20972;-75
2023/04/19 11:48:37;;;;;;;8.10;2.08;;;;;;;;;;5005965;28;20517;-75
2023/04/19 11:51:04;;;;;;;6.90;2.30;;;;;;;;;;5008457;28;20061;-75
2023/04/19 11:53:31;;;;;;;8.98;2.08;;;;;;;;;;5016469;28;20129;-75
2023/04/19 11:56:04;;;;;;;5.30;2.20;;;;;;;;;;5007009;28;20051;-75
2023/04/19 11:58:34;;;;;;;6.75;2.10;;;;;;;;;;5009463;28;20520;-75
2023/04/19 12:01:04;;;;;;;5.53;2.17;;;;;;;;;;5013411;28;20519;-75
2023/04/19 12:03:31;;;;;;;;;;;;;;;;;;5011188;28;20860;-74
2023/04/19 12:05:59;;;;;;;7.85;2.50;;;;;;;;;;5005186;28;46548;-75
2023/04/19 12:08:30;;;;;;;4.75;2.03;;;;;;;;;;5008303;28;20053;-75
2023/04/19 12:10:56;;;;;;;6.88;2.25;;;;;;;;;;5010874;28;20190;-76
2023/04/19 12:13:26;;;;;;;4.93;2.17;;;;;;;;;;5017104;28;20054;-75
2023/04/19 12:15:52;;;;;;;7.32;2.20;;;;;;;;;;5004296;28;20156;-75
2023/04/19 12:18:18;;;;;;;5.05;2.08;;;;;;;;;;5012238;28;21011;-75
2023/04/19 12:20:46;;;;;;;5.85;2.20;;;;;;;;;;5011144;28;20141;-74
2023/04/19 12:23:14;;;;;;;6.20;2.45;;;;;;;;;;5020253;28;20065;-75
2023/04/19 12:25:41;;;;;;;5.07;2.40;;;;;;;;;;5008172;28;20086;-75
2023/04/19 12:28:08;;;;;;;6.22;2.20;;;;;;;;;;5005218;28;20047;-75
2023/04/19 12:30:35;;;;;;;5.22;2.30;;;;;;;;;;5019886;28;20112;-75
2023/04/19 12:33:04;;;;;;;6.22;2.50;;;;;;;;;;5018161;28;20065;-75
2023/04/19 12:35:31;;;;;;;5.20;2.43;;;;;;;;;;5005153;28;20084;-75
2023/04/19 12:37:58;;;;;;;7.90;2.40;;;;;;;;;;5005368;28;20057;-75
2023/04/19 12:40:24;;;;;;;5.32;2.08;;;;;;;;;;5020463;28;20046;-75
2023/04/19 12:42:51;;;;;;;5.05;2.50;;;;;;;;;;5014205;28;20053;-75
2023/04/19 12:45:18;;;;;;;5.38;2.58;;;;;;;;;;5014387;28;20061;-75
2023/04/19 12:47:46;;;;;;;4.65;2.42;;;;;;;;;;5015713;28;20088;-75
2023/04/19 12:50:13;;;;;;;8.30;2.72;;;;;;;;;;5010964;28;20141;-75
2023/04/19 12:52:43;;;;;;;7.93;2.70;;;;;;;;;;5005088;28;20046;-75
2023/04/19 12:55:09;;;;;;;5.72;2.92;;;;;;;;;;5002991;28;20054;-75
2023/04/19 12:57:35;;;;;;;6.57;2.72;;;;;;;;;;5014296;28;20057;-75
2023/04/19 13:00:03;;;;;;;9.00;2.28;;;;;;;;;;5018527;28;20137;-76
2023/04/19 13:02:29;;;;;;;7.28;2.63;;;;;;;;;;5004775;28;20089;-76
2023/04/19 13:04:56;;;;;;;4.93;2.42;;;;;;;;;;5002946;28;20061;-76
2023/04/19 13:07:22;;;;;;;9.35;3.15;;;;;;;;;;5022934;28;20136;-76
2023/04/19 13:09:49;;;;;;;5.57;2.55;;;;;;;;;;5020072;28;20058;-75
2023/04/19 13:12:16;;;;;;;7.57;2.60;;;;;;;;;;5018356;28;20166;-76
2023/04/19 13:14:45;;;;;;;8.32;2.90;;;;;;;;;;5015114;28;20061;-75
2023/04/19 13:17:11;;;;;;;8.50;2.50;;;;;;;;;;5006170;28;20054;-75
2023/04/19 13:19:37;;;;;;;4.65;2.40;;;;;;;;;;5006974;28;20057;-76
2023/04/19 13:22:04;;;;;;;5.03;2.05;;;;;;;;;;5013955;28;20064;-76
2023/04/19 13:24:31;;;;;;;4.13;2.20;;;;;;;;;;5020059;28;20532;-75
2023/04/19 13:26:57;;;;;;;6.38;2.30;;;;;;;;;;5009129;28;20050;-74
2023/04/19 13:29:24;;;;;;;5.97;2.53;;;;;;;;;;5012279;28;20080;-74
2023/04/19 13:31:50;;;;;;;8.75;2.30;;;;;;;;;;5006956;28;20066;-76
2023/04/19 13:34:17;;;;;;;8.48;2.50;;;;;;;;;;5015527;28;20050;-76
2023/04/19 13:36:44;;;;;;;5.93;2.45;;;;;;;;;;5016170;28;20065;-76
2023/04/19 13:39:10;;;;;;;5.45;2.30;;;;;;;;;;5007627;28;20050;-78
2023/04/19 13:41:37;;;;;;;6.82;2.67;;;;;;;;;;5003938;28;20185;-76
2023/04/19 13:44:03;;;;;;;7.07;2.30;;;;;;;;;;5004005;28;20058;-76
2023/04/19 13:46:30;;;;;;;7.30;2.30;;;;;;;;;;5007130;28;20053;-75
2023/04/19 13:48:56;;;;;;;7.80;2.58;;;;;;;;;;5012350;28;20054;-75
2023/04/19 13:51:22;;;;;;;4.28;2.50;;;;;;;;;;5012049;28;20050;-75
2023/04/19 13:53:49;;;;;;;4.93;2.33;;;;;;;;;;5008956;28;20862;-75
2023/04/19 13:56:15;;;;;;;5.05;2.30;;;;;;;;;;5022543;28;20054;-75
2023/04/19 13:58:41;;;;;;;7.72;2.25;;;;;;;;;;5016620;28;20410;-75
2023/04/19 14:01:08;;;;;;;8.18;2.53;;;;;;;;;;5015956;28;20055;-75
2023/04/19 14:03:34;;;;;;;4.28;2.05;;;;;;;;;;5022648;28;20057;-75
2023/04/19 14:06:01;;;;;;;5.07;2.30;;;;;;;;;;5025136;28;20129;-75
2023/04/19 14:08:27;;;;;;;6.10;2.25;;;;;;;;;;5040755;28;20136;-75
2023/04/19 14:10:53;;;;;;;5.20;2.20;;;;;;;;;;5015920;28;20065;-75
2023/04/19 14:13:20;;;;;;;4.75;1.95;;;;;;;;;;5022873;28;20058;-75
2023/04/19 14:15:46;;;;;;;4.72;1.80;;;;;;;;;;5024214;28;20053;-75
2023/04/19 14:18:13;;;;;;;4.90;1.98;;;;;;;;;;5007332;28;20082;-75
2023/04/19 14:20:39;;;;;;;4.97;2.00;;;;;;;;;;5007805;28;20050;-75
2023/04/19 14:23:05;;;;;;;5.05;2.08;;;;;;;;;;5017171;28;20054;-74
2023/04/19 14:25:32;;;;;;;4.68;2.00;;;;;;;;;;5014853;28;20055;-75
2023/04/19 14:27:59;;;;;;;3.83;1.88;;;;;;;;;;5031413;28;20951;-75
2023/04/19 14:30:25;;;;;;;5.30;2.15;;;;;;;;;;5017154;28;20049;-75
2023/04/19 14:32:52;;;;;;;4.47;2.08;;;;;;;;;;5020905;28;20046;-75
2023/04/19 14:35:19;;;;;;;4.65;2.05;;;;;;;;;;5006345;28;20058;-75
2023/04/19 14:37:45;;;;;;;7.97;2.40;;;;;;;;;;5009365;28;20512;-75
2023/04/19 14:40:12;;;;;;;4.70;2.03;;;;;;;;;;5019916;28;20093;-75